Líbí se Vám tento web? Budeme velmi rádi, pokud přidáte hodnocení +1

Seznam meteostanic a jejich METAR

Vyhledat místa podle abecedy:
A B C D E F G H I J K L M N O P Q R S T U V W X Y Z

Filtrovat:

ID stanice:
a/nebo
Název místa (fulltext):
 
Místo (ID)Naposledy načteno 
Antwerp (EBAW) 17.01.2018 13:50 UTC Zobrazit METAR
EBAW 171350Z 28014G24KT 250V310 9999 SCT027 SCT035 06/M00 Q1005 NOSIG
Apia (NSFA) 17.01.2018 14:00 UTC Zobrazit METAR
NSFA 171400Z 16003KT 9999 FEW030 24/23 Q1010 RMK DEW
Aruba I (TNCA) 17.01.2018 14:00 UTC Zobrazit METAR
TNCA 171400Z 08017KT 9999 SCT017 29/24 Q1014 A2997 NOSIG
Ascension I. (FHAW) 17.01.2018 08:50 UTC Zobrazit METAR
FHAW 170850Z 13012KT 9999 FEW014 26/22 Q1014 BLU
Ashgabat (UTAA) 17.01.2018 14:00 UTC Zobrazit METAR
UTAA 171400Z 22004KT 9999 FEW033 02/M01 Q1020 R88/CLRD70 NOSIG
Asmara (HHAS) 03.02.2015 17:00 UTC Zobrazit METAR
HHAS 031700Z 27004KT CAVOK 15/06 Q1028 NOSIG
Astana (UACC) Zatím nenačteno  
Astrakhan (URWA) Zatím nenačteno  
Asuncion (SGAS) 17.01.2018 14:00 UTC Zobrazit METAR
SGAS 171400Z VRB04KT 9999 SCT033 BKN083 31/25 Q1012
Athens (LGAV) 17.01.2018 13:50 UTC Zobrazit METAR
LGAV 171350Z 21015KT 9999 FEW040 16/08 Q1005 NOSIG
Baghdad (ORBS) 06.06.2012 04:00 UTC  
Bagram (KQSA) 11.05.2016 15:58 UTC Zobrazit METAR
KQSA 111558Z VRB06KT 9999 BKN140 21/09 A3000 RMK AO2A SLP070 T02080091 $
Bahrain (OBBI) 17.01.2018 14:00 UTC Zobrazit METAR
OBBI 171400Z 32013KT CAVOK 19/09 Q1015 NOSIG
Baku (UBBB) 17.01.2018 14:00 UTC Zobrazit METAR
UBBB 171400Z 17007KT 9999 FEW020 SCT100 05/01 Q1016 R88/CLRD// NOSIG
Bamako (GABS) 17.01.2018 14:00 UTC Zobrazit METAR
GABS 171400Z 04004KT CAVOK 33/04 Q1013 NOSIG
Bandar Seri Begawan (WBSB) 17.01.2018 11:00 UTC Zobrazit METAR
WBSB 171100Z 31002KT 9999 -SHRA SCT015 SCT140 BKN280 28/24 Q1006 NOSIG
Bangkok (VTBD) 17.01.2018 14:00 UTC Zobrazit METAR
VTBD 171400Z 35006KT 320V030 9000 NSC 28/21 Q1010 NOSIG
Bangui (FEFF) 17.01.2018 14:00 UTC Zobrazit METAR
FEFF 171400Z 06005KT CAVOK 35/09 Q1006 NOSIG
Banja Luka (LQBK) 17.01.2018 14:00 UTC Zobrazit METAR
LQBK 171400Z 28008KT 9999 FEW015 BKN033 04/02 Q1000 NOSIG
Banjul (GBYD) 17.01.2018 14:00 UTC Zobrazit METAR
GBYD 171400Z 34005KT 9000 SKC 26/05 Q1014
Barbados (TBPB) 17.01.2018 14:00 UTC Zobrazit METAR
TBPB 171400Z 09017KT 9999 SCT016 28/24 Q1016 NOSIG
Barcelona (LEBL) 17.01.2018 14:00 UTC Zobrazit METAR
LEBL 171400Z 11007KT 9999 FEW025 15/09 Q1019 NOSIG
Bari (LIBD) 17.01.2018 13:50 UTC Zobrazit METAR
LIBD 171350Z 27021G38KT 9999 FEW030 17/07 Q0997
Basle-Mulhouse (LFSB) 17.01.2018 13:00 UTC Zobrazit METAR
LFSB 171300Z 27014KT 9999 FEW028 BKN053 04/M01 Q1013 NOSIG
Basse-Terre (TFFB) Zatím nenačteno  
Basseterre (TKPK) 17.01.2018 14:00 UTC Zobrazit METAR
TKPK 171400Z 05012KT 9999 FEW016 28/22 Q1018
Beijing (ZBAA) Zatím nenačteno  
Beirut (OLBA) 17.01.2018 14:00 UTC Zobrazit METAR
OLBA 171400Z 22007KT 180V250 8000 SCT030 SCT080 17/08 Q1016 NOSIG
Belfast (EGAA) 17.01.2018 13:50 UTC Zobrazit METAR
EGAA 171350Z 22012KT 9999 SCT013 03/02 Q1001
Belgrade (LYBE) 17.01.2018 14:00 UTC Zobrazit METAR
LYBE 171400Z 30014KT 8000 -RA SCT006 BKN010 04/03 Q0996 RERA NOSIG
Belize City (MZBZ) 17.01.2018 14:00 UTC Zobrazit METAR
MZBZ 171400Z 30010KT 9999 FEW048 20/17 A3024 Q1024 NOSIG
Bergen (ENBR) 17.01.2018 07:50 UTC Zobrazit METAR
ENBR 170750Z 14008KT 9999 VCSH FEW003 SCT015 BKN020 01/M00 Q0982 TEMPO 1500 SHSNGS VV008 RMK WIND 1200FT 14015KT
Berlin (EDDT) 17.01.2018 13:50 UTC Zobrazit METAR
EDDT 171350Z 26011KT 5000 -SN FEW004 BKN005 01/00 Q0995 R88/290095 BECMG BKN010
Bermuda Is (TXKF) 17.01.2018 13:55 UTC Zobrazit METAR
TXKF 171355Z 11009KT 9999 -DZ BKN009 BKN023 BKN300 22/20 Q1022 RMK VIS LWR SW
Bern (LSZB) 17.01.2018 13:50 UTC Zobrazit METAR
LSZB 171350Z 26011KT 220V290 9999 FEW015 BKN045 02/M01 Q1014 NOSIG
Billund (EKBI) 17.01.2018 13:50 UTC Zobrazit METAR
EKBI 171350Z 24007KT 9999 FEW009 BKN026 01/01 Q0989 R09/CLRD//
Birmingham (EGBB) 17.01.2018 13:50 UTC Zobrazit METAR
EGBB 171350Z 27016KT 9999 FEW030 06/M00 Q1006
Bishkek (UAFM) Zatím nenačteno  
Bissau (GGOV) 17.01.2018 14:00 UTC Zobrazit METAR
GGOV 171400Z 02012KT 8000 NSC 28/04 Q1013 NOSIG
Bogota (SKBO) 17.01.2018 14:00 UTC Zobrazit METAR
SKBO 171400Z 08006KT 9999 SCT020 16/09 A3036
Bologna (LIPE) 17.01.2018 12:50 UTC Zobrazit METAR
LIPE 171250Z 30028G41KT 9999 FEW030 13/M07 Q1002
Bordeaux (LFBD) 17.01.2018 13:00 UTC Zobrazit METAR
LFBD 171300Z AUTO 29014KT 9999 SCT036 BKN045 BKN070 12/06 Q1025 TEMPO 28015G25KT 4000 SHRA BKN035TCU
Bornholm (EKRN) 23.12.2017 08:50 UTC Zobrazit METAR
EKRN 230850Z 27025KT 8000 OVC004 07/06 Q1014
Brasilia (SBBR) 17.01.2018 14:00 UTC Zobrazit METAR
SBBR 171400Z 07012KT 9999 SCT030 27/14 Q1021
Bratislava (LZIB) 17.01.2018 13:45 UTC Zobrazit METAR
LZIB 171345Z 27016G26KT 9999 -SHRA FEW022 SCT037 BKN056 05/M00 Q0999 R88/290295
Brazzaville (FCBB) 17.01.2018 13:00 UTC Zobrazit METAR
FCBB 171300Z 35003KT 8000 FEW020 32/22 Q1010 NOSIG
Bremen (EDDW) 17.01.2018 13:50 UTC Zobrazit METAR
EDDW 171350Z 25015KT 9999 FEW012 BKN014 03/01 Q0996 R88/290094 NOSIG
Brest (UMBB) Zatím nenačteno  
Brest (LFRB) 17.01.2018 10:00 UTC Zobrazit METAR
LFRB 171000Z AUTO 29008KT 260V330 9999 FEW032 07/04 Q1019 BECMG 30016G30KT
Brno (LKTB) 17.01.2018 14:00 UTC Zobrazit METAR
LKTB 171400Z 29013KT 9999 BKN031 04/M02 Q0997 R27/29//95 NOSIG
Předchozí 1 2 3 4 ... 9 Další
Reklama

Počasí na Váš email

Emaily jsou bez reklamy a bez spamu



Odhlásit newsletter

Reklama


Lunární kalendář

  • 24.01.
  • 31.01.
  • 07.02.
  • 15.02.



Jsme na Google Plus

Reklama
Povinné ručení



Může Vás také zajímat:


Reklama